Jineimaru No3 — JD3926 — position and weather

sailwx.info

Track history (hours):
 
Tides and Currents Weather Stations Pressure Air Temp Water Temp Dewpoint Dewpoint Depression Visibility Wind Speed Wind Dir Waves Ship Positions

Jineimaru No3

Last reported at 2018-Jul-20 14:21 UTC. Time now 2018-Jul-22 16:40 UTC.
Position N 33°43' E 135°11'.

Length 78 m; draft 4.8 m.

Type: Cargo ship. MMSI: 431007053.

Date/timePositionNaut miles runAvg speedWind from/ knotsBaromVisibWave heightAir tempDewpointWater temp
2018-Jul-20 14:21N 33°43' E 135°11'711.9
2018-Jul-20 13:44N 33°49' E 135°05'311.6
2018-Jul-20 13:30N 33°51' E 135°03'611.8
2018-Jul-20 13:01N 33°55' E 134°58'612.5
2018-Jul-20 12:30N 33°60' E 134°53'612.5
2018-Jul-20 12:00N 34°04' E 134°48'1112.4
2018-Jul-20 11:08N 34°13' E 134°40'612.6
2018-Jul-20 10:40N 34°18' E 134°37'211.1
2018-Jul-20 10:30N 34°20' E 134°36'611.1
2018-Jul-20 10:00N 34°25' E 134°32'510.4
2018-Jul-20 09:30N 34°29' E 134°29'18 1.0
2018-Jul-19 15:22N 34°47' E 134°27'0 0.0
2018-Jul-19 09:49N 34°47' E 134°27'4 0.1
2018-Jul-17 12:32N 34°44' E 134°30'012.6
2018-Jul-17 12:30N 34°43' E 134°31'711.9
2018-Jul-17 11:53N 34°43' E 134°40'512.2
2018-Jul-17 11:30N 34°41' E 134°45'812.1
2018-Jul-17 10:50N 34°37' E 134°54'412.3
2018-Jul-17 10:28N 34°38' E 134°59'4 9.5
2018-Jul-17 10:00N 34°36' E 135°04'5 9.8
2018-Jul-17 09:30N 34°36' E 135°10'611.6
2018-Jul-17 09:00N 34°37' E 135°17'510.3
2018-Jul-17 08:30N 34°38' E 135°23'3 5.0
2018-Jul-17 07:59N 34°40' E 135°26'0 0.0
2018-Jul-17 07:30N 34°40' E 135°26'0 0.0
2018-Jul-17 07:00N 34°40' E 135°26'0 0.0
2018-Jul-17 06:30N 34°40' E 135°26'0 0.0
2018-Jul-17 05:52N 34°40' E 135°26'0 0.8
2018-Jul-17 05:30N 34°39' E 135°26'1 2.0
2018-Jul-17 05:00N 34°39' E 135°25'2 5.0
2018-Jul-17 04:30N 34°37' E 135°22'0 0.0
2018-Jul-17 04:00N 34°37' E 135°22'0 0.0
2018-Jul-17 03:30N 34°37' E 135°22'0 0.0
2018-Jul-17 03:00N 34°37' E 135°22'0 0.0
2018-Jul-17 02:30N 34°37' E 135°22'0 0.0
2018-Jul-17 02:00N 34°37' E 135°22'0 0.0
2018-Jul-17 01:30N 34°37' E 135°22'0 0.0
2018-Jul-17 00:59N 34°37' E 135°22'0 0.0
2018-Jul-17 00:30N 34°37' E 135°22'0 0.0
2018-Jul-16 23:18N 34°37' E 135°22'0 0.0
2018-Jul-16 22:54N 34°37' E 135°22'0 0.0
2018-Jul-16 22:30N 34°37' E 135°22'0 0.0
2018-Jul-16 22:00N 34°37' E 135°22'0 0.0
2018-Jul-16 21:30N 34°37' E 135°22'0 0.0
2018-Jul-16 21:00N 34°37' E 135°22'0 0.0
2018-Jul-16 20:30N 34°37' E 135°22'0 0.0
2018-Jul-16 20:00N 34°37' E 135°22'0 0.0
2018-Jul-16 19:30N 34°37' E 135°22'0 0.1
2018-Jul-16 19:00N 34°37' E 135°22'0 0.0
2018-Jul-16 18:30N 34°37' E 135°22'0 0.0
2018-Jul-16 18:00N 34°37' E 135°22'0 0.0
2018-Jul-16 17:29N 34°37' E 135°22'0 0.0
2018-Jul-16 17:00N 34°37' E 135°22'0 0.0
2018-Jul-16 16:30N 34°37' E 135°22'0 0.1
2018-Jul-16 16:00N 34°37' E 135°22'0 0.0
2018-Jul-16 15:30N 34°37' E 135°22'0 0.0
2018-Jul-16 15:00N 34°37' E 135°22'0 0.1
2018-Jul-16 14:30N 34°37' E 135°22'0 0.0
2018-Jul-16 14:00N 34°37' E 135°22'0 0.0
2018-Jul-16 13:30N 34°37' E 135°22'0 0.0
2018-Jul-16 13:00N 34°37' E 135°22'0 0.0
2018-Jul-16 12:30N 34°37' E 135°22'0 0.0
2018-Jul-16 12:00N 34°37' E 135°22'0 0.0
2018-Jul-16 11:30N 34°37' E 135°22'0 0.0
2018-Jul-16 11:00N 34°37' E 135°22'0 0.0
2018-Jul-16 10:31N 34°37' E 135°22'0 0.0
2018-Jul-16 10:00N 34°37' E 135°22'0 0.0
2018-Jul-16 09:30N 34°37' E 135°22'1 2.3
2018-Jul-16 09:00N 34°37' E 135°21'611.9
2018-Jul-16 08:30N 34°35' E 135°14'713.3
2018-Jul-16 08:00N 34°35' E 135°06'1114.4
2018-Jul-16 07:14N 34°35' E 134°53'714.0
2018-Jul-16 06:43N 34°32' E 134°44'312.5
2018-Jul-16 06:30N 34°31' E 134°42'612.4
2018-Jul-16 05:59N 34°29' E 134°34'  
2018-Jul-13 10:08N 34°25' E 134°21'213.6
2018-Jul-13 10:00N 34°25' E 134°23'713.2
2018-Jul-13 09:30N 34°28' E 134°30'712.7
2018-Jul-13 08:57N 34°31' E 134°38'612.7
2018-Jul-13 08:28N 34°33' E 134°45'612.7
2018-Jul-13 07:59N 34°35' E 134°52'712.2
2018-Jul-13 07:26N 34°38' E 134°60'4 9.5
2018-Jul-13 07:00N 34°36' E 135°04'510.9
2018-Jul-13 06:30N 34°35' E 135°11'711.8
2018-Jul-13 05:55N 34°33' E 135°19'5 9.8
2018-Jul-13 05:25N 34°31' E 135°24'0 0.4
2018-Jul-13 05:00N 34°31' E 135°24'0 0.0
2018-Jul-13 04:29N 34°31' E 135°24'0 0.0
2018-Jul-13 04:00N 34°31' E 135°24'0 0.0
2018-Jul-13 03:30N 34°31' E 135°24'0 0.0
2018-Jul-13 02:59N 34°31' E 135°24'0 0.0
2018-Jul-13 02:30N 34°31' E 135°24'0 0.0
2018-Jul-13 02:00N 34°31' E 135°24'0 0.0
2018-Jul-13 01:29N 34°31' E 135°24'0 0.0
2018-Jul-13 00:58N 34°31' E 135°24'0 0.0
2018-Jul-13 00:30N 34°31' E 135°24'0 0.0
2018-Jul-13 00:00N 34°31' E 135°24'0 0.0
2018-Jul-12 23:29N 34°31' E 135°24'0 0.0
2018-Jul-12 23:00N 34°31' E 135°24'0 0.2
2018-Jul-12 22:28N 34°31' E 135°24'0 0.0
2018-Jul-12 21:54N 34°31' E 135°24'0 0.0
2018-Jul-12 21:28N 34°31' E 135°24'0 0.0
2018-Jul-12 20:59N 34°31' E 135°24'0 0.0
2018-Jul-12 20:29N 34°31' E 135°24'0 0.0
2018-Jul-12 20:00N 34°31' E 135°24'0 0.0
2018-Jul-12 19:30N 34°31' E 135°24'0 0.0
2018-Jul-12 19:00N 34°31' E 135°24'0 0.0
2018-Jul-12 18:15N 34°31' E 135°24'0 0.0
2018-Jul-12 17:57N 34°31' E 135°24'0 0.0
2018-Jul-12 17:27N 34°31' E 135°24'0 0.0
2018-Jul-12 17:00N 34°31' E 135°24'0 0.0
2018-Jul-12 16:30N 34°31' E 135°24'0 0.0
2018-Jul-12 16:00N 34°31' E 135°24'0 0.0
2018-Jul-12 15:22N 34°31' E 135°24'0 0.0
2018-Jul-12 14:58N 34°31' E 135°24'0 0.0
2018-Jul-12 14:29N 34°31' E 135°24'0 0.0
2018-Jul-12 13:52N 34°31' E 135°24'0 0.0
2018-Jul-12 06:09N 34°31' E 135°24'0 0.0
2018-Jul-12 05:58N 34°31' E 135°24'2 3.4
2018-Jul-12 05:29N 34°32' E 135°24'611.6
2018-Jul-12 05:00N 34°30' E 135°18'611.7
2018-Jul-12 04:30N 34°27' E 135°12'611.4
2018-Jul-12 04:00N 34°22' E 135°07'510.7
2018-Jul-12 03:30N 34°18' E 135°04'5 9.3
2018-Jul-12 03:00N 34°13' E 135°03'611.2
2018-Jul-12 02:29N 34°07' E 135°03'611.9
2018-Jul-12 02:00N 34°01' E 135°02'222 9.6
2018-Jul-11 02:56N 34°55' E 139°23'4 7.2
2018-Jul-11 02:21N 34°57' E 139°27'3 8.4
2018-Jul-11 02:00N 34°59' E 139°30'610.4
2018-Jul-11 01:28N 35°03' E 139°35'511.9
2018-Jul-11 01:00N 35°06' E 139°40'612.4
2018-Jul-11 00:29N 35°11' E 139°45'511.5
2018-Jul-11 00:00N 35°17' E 139°45'612.0
2018-Jul-10 23:30N 35°22' E 139°42'612.1
2018-Jul-10 23:00N 35°27' E 139°47'  
Track history (hours):
 
Tides and Currents Weather Stations Pressure Air Temp Water Temp Dewpoint Dewpoint Depression Visibility Wind Speed Wind Dir Waves Ship Positions

Jineimaru No3

Last reported at 2018-Jul-20 14:21 UTC. Time now 2018-Jul-22 16:40 UTC.
Position N 33°43' E 135°11'.

Length 78 m; draft 4.8 m.

Type: Cargo ship. MMSI: 431007053.

Date/timePositionNaut miles runAvg speedWind from/ knotsBaromVisibWave heightAir tempDewpointWater temp
2018-Jul-20 14:21N 33°43' E 135°11'711.9
2018-Jul-20 13:44N 33°49' E 135°05'311.6
2018-Jul-20 13:30N 33°51' E 135°03'611.8
2018-Jul-20 13:01N 33°55' E 134°58'612.5
2018-Jul-20 12:30N 33°60' E 134°53'612.5
2018-Jul-20 12:00N 34°04' E 134°48'1112.4
2018-Jul-20 11:08N 34°13' E 134°40'612.6
2018-Jul-20 10:40N 34°18' E 134°37'211.1
2018-Jul-20 10:30N 34°20' E 134°36'611.1
2018-Jul-20 10:00N 34°25' E 134°32'510.4
2018-Jul-20 09:30N 34°29' E 134°29'18 1.0
2018-Jul-19 15:22N 34°47' E 134°27'0 0.0
2018-Jul-19 09:49N 34°47' E 134°27'4 0.1
2018-Jul-17 12:32N 34°44' E 134°30'012.6
2018-Jul-17 12:30N 34°43' E 134°31'711.9
2018-Jul-17 11:53N 34°43' E 134°40'512.2
2018-Jul-17 11:30N 34°41' E 134°45'812.1
2018-Jul-17 10:50N 34°37' E 134°54'412.3
2018-Jul-17 10:28N 34°38' E 134°59'4 9.5
2018-Jul-17 10:00N 34°36' E 135°04'5 9.8
2018-Jul-17 09:30N 34°36' E 135°10'611.6
2018-Jul-17 09:00N 34°37' E 135°17'510.3
2018-Jul-17 08:30N 34°38' E 135°23'3 5.0
2018-Jul-17 07:59N 34°40' E 135°26'0 0.0
2018-Jul-17 07:30N 34°40' E 135°26'0 0.0
2018-Jul-17 07:00N 34°40' E 135°26'0 0.0
2018-Jul-17 06:30N 34°40' E 135°26'0 0.0
2018-Jul-17 05:52N 34°40' E 135°26'0 0.8
2018-Jul-17 05:30N 34°39' E 135°26'1 2.0
2018-Jul-17 05:00N 34°39' E 135°25'2 5.0
2018-Jul-17 04:30N 34°37' E 135°22'0 0.0
2018-Jul-17 04:00N 34°37' E 135°22'0 0.0
2018-Jul-17 03:30N 34°37' E 135°22'0 0.0
2018-Jul-17 03:00N 34°37' E 135°22'0 0.0
2018-Jul-17 02:30N 34°37' E 135°22'0 0.0
2018-Jul-17 02:00N 34°37' E 135°22'0 0.0
2018-Jul-17 01:30N 34°37' E 135°22'0 0.0
2018-Jul-17 00:59N 34°37' E 135°22'0 0.0
2018-Jul-17 00:30N 34°37' E 135°22'0 0.0
2018-Jul-16 23:18N 34°37' E 135°22'0 0.0
2018-Jul-16 22:54N 34°37' E 135°22'0 0.0
2018-Jul-16 22:30N 34°37' E 135°22'0 0.0
2018-Jul-16 22:00N 34°37' E 135°22'0 0.0
2018-Jul-16 21:30N 34°37' E 135°22'0 0.0
2018-Jul-16 21:00N 34°37' E 135°22'0 0.0
2018-Jul-16 20:30N 34°37' E 135°22'0 0.0
2018-Jul-16 20:00N 34°37' E 135°22'0 0.0
2018-Jul-16 19:30N 34°37' E 135°22'0 0.1
2018-Jul-16 19:00N 34°37' E 135°22'0 0.0
2018-Jul-16 18:30N 34°37' E 135°22'0 0.0
2018-Jul-16 18:00N 34°37' E 135°22'0 0.0
2018-Jul-16 17:29N 34°37' E 135°22'0 0.0
2018-Jul-16 17:00N 34°37' E 135°22'0 0.0
2018-Jul-16 16:30N 34°37' E 135°22'0 0.1
2018-Jul-16 16:00N 34°37' E 135°22'0 0.0
2018-Jul-16 15:30N 34°37' E 135°22'0 0.0
2018-Jul-16 15:00N 34°37' E 135°22'0 0.1
2018-Jul-16 14:30N 34°37' E 135°22'0 0.0
2018-Jul-16 14:00N 34°37' E 135°22'0 0.0
2018-Jul-16 13:30N 34°37' E 135°22'0 0.0
2018-Jul-16 13:00N 34°37' E 135°22'0 0.0
2018-Jul-16 12:30N 34°37' E 135°22'0 0.0
2018-Jul-16 12:00N 34°37' E 135°22'0 0.0
2018-Jul-16 11:30N 34°37' E 135°22'0 0.0
2018-Jul-16 11:00N 34°37' E 135°22'0 0.0
2018-Jul-16 10:31N 34°37' E 135°22'0 0.0
2018-Jul-16 10:00N 34°37' E 135°22'0 0.0
2018-Jul-16 09:30N 34°37' E 135°22'1 2.3
2018-Jul-16 09:00N 34°37' E 135°21'611.9
2018-Jul-16 08:30N 34°35' E 135°14'713.3
2018-Jul-16 08:00N 34°35' E 135°06'1114.4
2018-Jul-16 07:14N 34°35' E 134°53'714.0
2018-Jul-16 06:43N 34°32' E 134°44'312.5
2018-Jul-16 06:30N 34°31' E 134°42'612.4
2018-Jul-16 05:59N 34°29' E 134°34'  
2018-Jul-13 10:08N 34°25' E 134°21'213.6
2018-Jul-13 10:00N 34°25' E 134°23'713.2
2018-Jul-13 09:30N 34°28' E 134°30'712.7
2018-Jul-13 08:57N 34°31' E 134°38'612.7
2018-Jul-13 08:28N 34°33' E 134°45'612.7
2018-Jul-13 07:59N 34°35' E 134°52'712.2
2018-Jul-13 07:26N 34°38' E 134°60'4 9.5
2018-Jul-13 07:00N 34°36' E 135°04'510.9
2018-Jul-13 06:30N 34°35' E 135°11'711.8
2018-Jul-13 05:55N 34°33' E 135°19'5 9.8
2018-Jul-13 05:25N 34°31' E 135°24'0 0.4
2018-Jul-13 05:00N 34°31' E 135°24'0 0.0
2018-Jul-13 04:29N 34°31' E 135°24'0 0.0
2018-Jul-13 04:00N 34°31' E 135°24'0 0.0
2018-Jul-13 03:30N 34°31' E 135°24'0 0.0
2018-Jul-13 02:59N 34°31' E 135°24'0 0.0
2018-Jul-13 02:30N 34°31' E 135°24'0 0.0
2018-Jul-13 02:00N 34°31' E 135°24'0 0.0
2018-Jul-13 01:29N 34°31' E 135°24'0 0.0
2018-Jul-13 00:58N 34°31' E 135°24'0 0.0
2018-Jul-13 00:30N 34°31' E 135°24'0 0.0
2018-Jul-13 00:00N 34°31' E 135°24'0 0.0
2018-Jul-12 23:29N 34°31' E 135°24'0 0.0
2018-Jul-12 23:00N 34°31' E 135°24'0 0.2
2018-Jul-12 22:28N 34°31' E 135°24'0 0.0
2018-Jul-12 21:54N 34°31' E 135°24'0 0.0
2018-Jul-12 21:28N 34°31' E 135°24'0 0.0
2018-Jul-12 20:59N 34°31' E 135°24'0 0.0
2018-Jul-12 20:29N 34°31' E 135°24'0 0.0
2018-Jul-12 20:00N 34°31' E 135°24'0 0.0
2018-Jul-12 19:30N 34°31' E 135°24'0 0.0
2018-Jul-12 19:00N 34°31' E 135°24'0 0.0
2018-Jul-12 18:15N 34°31' E 135°24'0 0.0
2018-Jul-12 17:57N 34°31' E 135°24'0 0.0
2018-Jul-12 17:27N 34°31' E 135°24'0 0.0
2018-Jul-12 17:00N 34°31' E 135°24'0 0.0
2018-Jul-12 16:30N 34°31' E 135°24'0 0.0
2018-Jul-12 16:00N 34°31' E 135°24'0 0.0
2018-Jul-12 15:22N 34°31' E 135°24'0 0.0
2018-Jul-12 14:58N 34°31' E 135°24'0 0.0
2018-Jul-12 14:29N 34°31' E 135°24'0 0.0
2018-Jul-12 13:52N 34°31' E 135°24'0 0.0
2018-Jul-12 06:09N 34°31' E 135°24'0 0.0
2018-Jul-12 05:58N 34°31' E 135°24'2 3.4
2018-Jul-12 05:29N 34°32' E 135°24'611.6
2018-Jul-12 05:00N 34°30' E 135°18'611.7
2018-Jul-12 04:30N 34°27' E 135°12'611.4
2018-Jul-12 04:00N 34°22' E 135°07'510.7
2018-Jul-12 03:30N 34°18' E 135°04'5 9.3
2018-Jul-12 03:00N 34°13' E 135°03'611.2
2018-Jul-12 02:29N 34°07' E 135°03'611.9
2018-Jul-12 02:00N 34°01' E 135°02'222 9.6
2018-Jul-11 02:56N 34°55' E 139°23'4 7.2
2018-Jul-11 02:21N 34°57' E 139°27'3 8.4
2018-Jul-11 02:00N 34°59' E 139°30'610.4
2018-Jul-11 01:28N 35°03' E 139°35'511.9
2018-Jul-11 01:00N 35°06' E 139°40'612.4
2018-Jul-11 00:29N 35°11' E 139°45'511.5
2018-Jul-11 00:00N 35°17' E 139°45'612.0
2018-Jul-10 23:30N 35°22' E 139°42'612.1
2018-Jul-10 23:00N 35°27' E 139°47'  

Dump ship's entire track history